Latest Weather Observations for Minlaton Airport

IDS60801

Issued at 9:31 pm CDT Tuesday 17 January 2017 (issued every 30 minutes, with the page automatically refreshed every 10 minutes)

About weather observations | Map of weather stations | Latest weather observations for SA | Other Formats
Station Details ID: 022031 Name: MINLATON AERO Lat: -34.75 Lon: 137.53 Height: 32.0 m
Data from the previous 72 hours. | See also: Recent months at Minlaton Airport
Date/Time
CDT
Temp
°C
App
Temp
°C
Dew
Point
°C
Rel
Hum
%
Delta-T
°C
Wind Press
QNH
hPa
Press
MSL
hPa
Rain since
9am
mm
Dir  Spd
km/h
Gust
km/h
Spd
kts
Gust
kts
17/09:29pm 19.3 13.8 15.8 80 2.1 SE 39 61 21 33 1010.2 1010.1 0.0
17/09:00pm 19.9 12.9 15.3 75 2.7 SSE 46 61 25 33 1010.4 1010.3 0.0
17/08:30pm 20.6 13.6 15.4 72 3.1 SSE 46 61 25 33 1010.2 1010.1 0.0
17/08:01pm 22.5 14.3 16.1 67 3.9 S 54 72 29 39 1009.3 1009.2 0.0
17/08:00pm 22.7 14.4 16.0 66 4.1 S 54 69 29 37 1009.4 1009.3 0.0
17/07:30pm 26.3 16.9 12.7 43 7.9 S 54 72 29 39 1008.0 1007.9 0.0
17/07:27pm 26.7 17.6 12.4 41 8.3 S 52 72 28 39 1007.8 1007.7 0.0
17/07:00pm 30.8 24.4 10.7 29 11.5 SW 35 52 19 28 1007.3 1007.2 0.0
17/06:59pm 31.5 24.7 9.1 25 12.6 SW 35 52 19 28 1007.3 1007.2 0.0
17/06:30pm 34.9 26.5 3.5 14 16.5 SW 37 43 20 23 1006.4 1006.3 0.0
17/06:00pm 34.9 27.0 4.4 15 16.2 WSW 35 43 19 23 1005.8 1005.6 0.0
17/05:30pm 37.8 34.0 11.0 20 16.0 SW 22 26 12 14 1005.4 1005.2 0.0
17/05:00pm 35.0 29.0 5.4 16 16.0 WSW 26 37 14 20 1005.6 1005.4 0.0
17/04:30pm 34.9 30.0 11.3 24 14.0 WSW 28 33 15 18 1005.6 1005.4 0.0
17/04:06pm 37.5 32.5 6.5 15 17.2 WNW 22 46 12 25 1005.4 1005.2 0.0
17/04:00pm 41.2 35.2 -1.4 7 21.4 NW 20 28 11 15 1005.2 1005.0 0.0
17/03:30pm 41.1 34.5 -3.6 6 21.8 NW 22 30 12 16 1005.3 1005.1 0.0
17/03:00pm 40.6 33.6 -3.9 6 21.5 NW 24 33 13 18 1005.5 1005.3 0.0
17/02:30pm 40.6 33.0 -1.9 7 21.2 NW 28 35 15 19 1005.8 1005.6 0.0
17/02:00pm 40.6 32.5 0.0 8 20.8 NNW 32 39 17 21 1006.1 1006.0 0.0
17/01:30pm 39.4 31.4 0.7 9 19.9 NNW 32 39 17 21 1006.5 1006.4 0.0
17/01:00pm 38.7 30.9 3.0 11 18.9 NNW 33 43 18 23 1006.7 1006.6 0.0
17/12:30pm 38.6 29.8 1.6 10 19.2 NNW 37 46 20 25 1007.0 1006.9 0.0
17/12:00pm 37.9 30.2 3.6 12 18.3 NNW 33 43 18 23 1007.2 1007.1 0.0
17/11:30am 36.4 29.1 4.6 14 17.1 NNW 32 41 17 22 1007.3 1007.2 0.0
17/11:00am 36.5 29.2 4.7 14 17.1 NNW 32 39 17 21 1007.3 1007.2 0.0
17/10:30am 36.7 28.9 1.5 11 18.1 NNW 32 41 17 22 1007.2 1007.1 0.0
17/10:00am 36.5 28.8 2.5 12 17.7 NNW 32 39 17 21 1007.2 1007.1 0.0
17/09:30am 35.9 29.3 2.1 12 17.4 N 26 33 14 18 1007.0 1006.9 0.0
17/09:00am 34.4 28.1 4.0 15 16.0 N 26 35 14 19 1007.2 1007.1 0.0
17/08:30am 31.7 26.1 5.3 19 14.0 N 24 28 13 15 1007.1 1007.0 0.0
17/08:00am 29.7 24.4 5.1 21 12.8 N 22 30 12 16 1007.0 1006.9 0.0
17/07:30am 26.0 21.6 6.6 29 10.2 NNE 19 20 10 11 1007.1 1007.0 0.0
17/07:00am 25.4 20.6 5.6 28 10.1 NE 20 24 11 13 1006.8 1006.7 0.0
17/06:30am 25.3 19.8 6.0 29 10.0 NE 24 32 13 17 1006.6 1006.5 0.0
17/06:00am 23.2 17.6 7.3 36 8.3 NE 26 28 14 15 1006.5 1006.4 0.0
17/05:30am 22.5 17.2 6.7 36 8.1 ENE 24 26 13 14 1006.5 1006.4 0.0
17/05:00am 20.4 14.9 7.7 44 6.5 E 26 28 14 15 1006.4 1006.3 0.0
17/04:30am 20.5 14.7 7.8 44 6.6 E 28 30 15 16 1006.4 1006.3 0.0
17/04:00am 20.3 14.9 8.0 45 6.4 E 26 30 14 16 1006.7 1006.6 0.0
17/03:30am 21.1 15.9 7.3 41 7.1 E 24 24 13 13 1006.8 1006.7 0.0
17/03:00am 21.1 16.4 7.7 42 7.0 E 22 24 12 13 1007.2 1007.1 0.0
17/02:30am 21.5 16.4 7.7 41 7.2 E 24 26 13 14 1007.5 1007.4 0.0
17/02:00am 22.1 17.3 7.5 39 7.6 E 22 24 12 13 1007.8 1007.7 0.0
17/01:30am 22.6 17.6 8.0 39 7.7 E 24 26 13 14 1007.9 1007.8 0.0
17/01:00am 21.6 18.0 9.8 47 6.4 E 19 20 10 11 1008.2 1008.1 0.0
17/12:30am 21.2 17.9 11.0 52 5.6 ESE 19 20 10 11 1008.5 1008.4 0.0
17/12:00am 22.4 18.8 10.5 47 6.5 E 20 22 11 12 1008.8 1008.7 0.0
 
Date/Time
CDT
Temp
°C
App
Temp
°C
Dew
Point
°C
Rel
Hum
%
Delta-T
°C
Wind Press
QNH
hPa
Press
MSL
hPa
Rain since
9am
mm
Dir  Spd
km/h
Gust
km/h
Spd
kts
Gust
kts
16/11:30pm 23.6 19.7 8.5 38 8.1 ESE 19 20 10 11 1009.0 1008.9 0.0
16/11:00pm 23.5 20.3 9.9 42 7.4 ESE 17 19 9 10 1009.0 1008.9 0.0
16/10:30pm 22.1 20.1 10.3 47 6.5 S 11 13 6 7 1009.3 1009.2 0.0
16/10:00pm 23.3 19.8 8.6 39 7.8 ESE 17 17 9 9 1009.3 1009.2 0.0
16/09:30pm 25.5 21.6 7.1 31 9.7 E 17 19 9 10 1009.1 1009.0 0.0
16/09:00pm 27.2 23.4 6.0 26 11.1 E 15 17 8 9 1009.1 1009.0 0.0
16/08:30pm 29.6 25.2 5.0 21 12.8 E 17 20 9 11 1009.0 1008.9 0.0
16/08:00pm 32.0 27.2 4.7 18 14.3 ENE 19 22 10 12 1008.8 1008.7 0.0
16/07:30pm 34.0 31.3 5.5 17 15.3 ENE 9 13 5 7 1008.6 1008.5 0.0
16/07:00pm 35.6 30.9 3.0 13 17.0 WSW 17 20 9 11 1008.2 1008.1 0.0
16/06:30pm 36.2 32.3 3.4 13 17.3 WSW 13 24 7 13 1008.1 1008.0 0.0
16/06:00pm 36.3 33.2 3.5 13 17.3 W 9 15 5 8 1008.4 1008.3 0.0
16/05:30pm 35.3 32.2 3.8 14 16.6 S 9 13 5 7 1008.6 1008.5 0.0
16/05:00pm 35.4 32.4 3.9 14 16.6 SSW 9 17 5 9 1009.0 1008.9 0.0
16/04:30pm 35.2 31.7 3.7 14 16.6 WSW 11 17 6 9 1009.4 1009.3 0.0
16/04:00pm 34.4 31.0 4.0 15 16.0 WNW 11 17 6 9 1009.7 1009.6 0.0
16/03:30pm 33.8 30.5 6.2 18 15.0 W 13 20 7 11 1010.0 1009.9 0.0
16/03:00pm 33.5 28.8 5.1 17 15.1 W 19 24 10 13 1010.4 1010.3 0.0
16/02:30pm 34.1 28.9 3.8 15 15.9 WNW 20 28 11 15 1010.5 1010.4 0.0
16/02:00pm 33.2 28.4 5.7 18 14.8 NW 20 28 11 15 1010.9 1010.8 0.0
16/01:30pm 32.2 25.6 4.1 17 14.6 NNW 28 37 15 20 1011.4 1011.3 0.0
16/01:00pm 32.3 26.0 5.7 19 14.2 NNW 28 35 15 19 1011.6 1011.5 0.0
16/12:30pm 31.2 25.0 6.3 21 13.4 NNW 28 37 15 20 1011.7 1011.6 0.0
16/12:00pm 31.3 25.2 6.4 21 13.4 NW 28 35 15 19 1011.8 1011.7 0.0
16/11:30am 31.5 25.8 8.5 24 12.8 NNW 28 35 15 19 1012.1 1012.0 0.0
16/11:00am 30.3 25.8 8.7 26 12.0 NNW 22 32 12 17 1012.3 1012.2 0.0
16/10:30am 30.7 25.3 7.8 24 12.5 NNW 26 33 14 18 1012.4 1012.3 0.0
16/10:00am 29.8 23.8 7.1 24 12.2 N 28 35 15 19 1012.5 1012.4 0.0
16/09:30am 27.9 22.5 8.2 29 10.7 N 26 32 14 17 1012.8 1012.7 0.0
16/09:00am 25.8 21.9 10.8 39 8.4 NNE 22 28 12 15 1013.0 1012.9 0.0
16/08:30am 23.5 20.1 12.5 50 6.3 NE 22 26 12 14 1013.2 1013.1 0.0
16/08:00am 21.1 18.3 14.3 65 4.0 NE 22 28 12 15 1012.8 1012.7 0.0
16/07:30am 18.8 15.9 15.1 79 2.2 ENE 24 28 13 15 1012.7 1012.6 0.0
16/07:00am 17.4 14.7 14.7 84 1.6 ENE 22 26 12 14 1012.8 1012.7 0.0
16/06:30am 16.6 14.2 14.4 87 1.3 ENE 20 26 11 14 1012.6 1012.5 0.0
16/06:00am 15.0 12.9 13.7 92 0.7 ENE 17 20 9 11 1012.6 1012.5 0.0
16/05:30am 13.8 12.5 12.4 91 0.8 NE 11 13 6 7 1012.7 1012.6 0.0
16/05:00am 15.4 16.2 13.8 90 0.9 N 2 9 1 5 1012.5 1012.4 0.0
16/04:30am 15.9 15.9 14.3 90 0.9 ENE 7 11 4 6 1012.4 1012.3 0.0
16/04:00am 15.5 15.6 13.9 90 0.9 WSW 6 13 3 7 1012.3 1012.2 0.0
16/03:30am 16.1 16.3 14.1 88 1.1 SSE 6 11 3 6 1012.4 1012.3 0.0
16/03:00am 16.4 16.6 14.6 89 1.0 SSW 7 11 4 6 1012.6 1012.5 0.0
16/02:30am 16.5 15.7 14.0 85 1.4 SE 11 19 6 10 1012.8 1012.7 0.0
16/02:00am 16.6 14.8 14.4 87 1.3 ESE 17 22 9 12 1013.1 1013.0 0.0
16/01:30am 16.6 14.8 14.4 87 1.3 ESE 17 20 9 11 1013.5 1013.4 0.0
16/01:00am 17.0 13.9 14.6 86 1.4 ESE 24 28 13 15 1013.7 1013.6 0.0
16/12:30am 17.1 14.1 14.9 87 1.3 ESE 24 28 13 15 1013.8 1013.7 0.0
16/12:00am 16.7 15.4 14.7 88 1.2 SE 15 19 8 10 1014.2 1014.1 0.0
 
Date/Time
CDT
Temp
°C
App
Temp
°C
Dew
Point
°C
Rel
Hum
%
Delta-T
°C
Wind Press
QNH
hPa
Press
MSL
hPa
Rain since
9am
mm
Dir  Spd
km/h
Gust
km/h
Spd
kts
Gust
kts
15/11:30pm 16.5 14.9 14.0 85 1.4 SE 15 19 8 10 1014.3 1014.2 0.0
15/11:00pm 16.8 14.8 13.9 83 1.6 SE 17 22 9 12 1014.6 1014.5 0.0
15/10:30pm 16.8 14.1 13.5 81 1.9 SE 20 24 11 13 1014.5 1014.4 0.0
15/10:00pm 17.1 14.5 13.8 81 1.9 SE 20 24 11 13 1014.7 1014.6 0.0
15/09:30pm 17.2 14.6 13.3 78 2.2 SSE 19 20 10 11 1014.9 1014.8 0.0
15/09:00pm 18.6 15.3 12.8 69 3.3 SSE 22 28 12 15 1015.1 1015.0 0.0
15/08:30pm 20.1 16.5 11.8 59 4.6 SE 22 28 12 15 1015.0 1014.9 0.0
15/08:00pm 22.0 18.1 12.0 53 5.6 SE 24 30 13 16 1014.9 1014.8 0.0
15/07:30pm 23.8 20.0 11.2 45 7.1 SE 22 28 12 15 1015.1 1015.0 0.0
15/07:00pm 25.0 20.6 8.9 36 8.7 SE 22 30 12 16 1015.0 1014.9 0.0
15/06:30pm 25.8 21.3 5.9 28 10.3 SE 19 30 10 16 1014.9 1014.8 0.0
15/06:00pm 26.8 22.5 6.8 28 10.5 SE 19 26 10 14 1015.0 1014.9 0.0
15/05:30pm 26.3 21.7 5.8 27 10.6 SE 19 28 10 15 1015.3 1015.2 0.0
15/05:00pm 26.3 22.0 6.9 29 10.2 SE 19 28 10 15 1015.7 1015.6 0.0
15/04:30pm 26.9 22.8 7.9 30 10.2 SE 19 26 10 14 1016.2 1016.1 0.0
15/04:00pm 26.4 22.8 8.4 32 9.7 SE 17 26 9 14 1016.4 1016.3 0.0
15/03:30pm 26.8 23.9 9.6 34 9.5 SE 15 26 8 14 1016.7 1016.6 0.0
15/03:00pm 25.3 21.3 8.3 34 9.1 SE 19 28 10 15 1017.0 1016.9 0.0
15/02:30pm 26.4 23.2 10.1 36 9.1 ESE 17 24 9 13 1017.3 1017.2 0.0
15/02:00pm 25.3 21.9 9.2 36 8.8 ESE 17 28 9 15 1017.7 1017.6 0.0
15/01:30pm 25.0 22.2 10.1 39 8.2 E 15 28 8 15 1017.9 1017.8 0.0
15/01:00pm 24.5 21.3 10.0 40 8.0 ESE 17 28 9 15 1018.2 1018.1 0.0
15/12:30pm 24.9 21.8 10.4 40 8.0 E 17 26 9 14 1018.5 1018.4 0.0
15/12:00pm 23.6 20.5 10.3 43 7.3 ESE 17 30 9 16 1018.6 1018.5 0.0
15/11:30am 23.1 19.7 10.5 45 6.9 ESE 19 30 10 16 1018.9 1018.8 0.0
15/11:00am 22.4 19.2 9.9 45 6.8 SE 17 39 9 21 1019.0 1018.9 0.0
15/10:30am 22.1 18.8 10.9 49 6.2 SSE 19 30 10 16 1019.5 1019.4 0.0
15/10:00am 20.9 19.0 10.4 51 5.7 ESE 11 22 6 12 1020.0 1019.9 0.0
15/09:30am 20.0 18.2 10.7 55 5.0 SE 11 20 6 11 1020.1 1020.0 0.0
15/09:00am 18.9 17.1 10.7 59 4.4 E 11 19 6 10 1020.3 1020.2 0.0
15/08:30am 18.3 16.1 10.7 61 4.1 ESE 13 20 7 11 1020.1 1020.0 0.0
15/08:00am 17.6 15.3 10.5 63 3.8 SE 13 20 7 11 1020.1 1020.0 0.0
15/07:30am 17.4 15.3 11.0 66 3.4 ESE 13 17 7 9 1019.5 1019.4 0.0
15/07:00am 17.1 15.0 11.2 68 3.2 SE 13 17 7 9 1019.2 1019.1 0.0
15/06:30am 16.9 13.9 10.7 67 3.3 ESE 17 24 9 13 1019.0 1018.9 0.0
15/06:00am 16.8 14.7 11.1 69 3.1 SSE 13 17 7 9 1018.7 1018.6 0.0
15/05:30am 16.7 14.6 11.0 69 3.1 SE 13 17 7 9 1018.5 1018.4 0.0
15/05:00am 16.7 13.4 10.8 68 3.2 SE 19 24 10 13 1018.2 1018.1 0.0
15/04:30am 16.7 13.7 10.8 68 3.2 SE 17 20 9 11 1017.8 1017.7 0.0
15/04:00am 16.9 13.6 11.0 68 3.2 SE 19 24 10 13 1018.0 1017.9 0.0
15/03:30am 17.0 14.9 11.3 69 3.1 SSE 13 19 7 10 1017.9 1017.8 0.0
15/03:00am 17.0 14.1 11.1 68 3.2 SSE 17 20 9 11 1017.9 1017.8 0.0
15/02:30am 17.0 13.8 11.1 68 3.2 SE 19 24 10 13 1018.0 1017.9 0.0
15/02:00am 17.0 14.1 11.1 68 3.2 SSE 17 30 9 16 1018.3 1018.2 0.0
15/01:30am 17.0 13.5 10.8 67 3.3 SSE 20 30 11 16 1018.5 1018.4 0.0
15/01:00am 17.2 13.4 11.0 67 3.3 SSE 22 32 12 17 1018.5 1018.4 0.0
15/12:30am 17.2 13.3 10.8 66 3.4 SSE 22 32 12 17 1018.7 1018.6 0.0
15/12:00am 16.6 13.7 11.1 70 3.0 SSE 17 24 9 13 1018.6 1018.5 0.0
 
Date/Time
CDT
Temp
°C
App
Temp
°C
Dew
Point
°C
Rel
Hum
%
Delta-T
°C
Wind Press
QNH
hPa
Press
MSL
hPa
Rain since
9am
mm
Dir  Spd
km/h
Gust
km/h
Spd
kts
Gust
kts
14/11:30pm 16.5 13.1 10.6 68 3.1 SE 19 22 10 12 1018.7 1018.6 0.0
14/11:00pm 16.8 12.9 10.9 68 3.2 SSE 22 32 12 17 1018.5 1018.4 0.0
14/10:30pm 16.1 12.7 10.4 69 3.0 SSE 19 24 10 13 1018.5 1018.4 0.0
14/10:00pm 17.1 12.8 10.7 66 3.4 SSE 24 32 13 17 1018.5 1018.4 0.0

Other Formats:

Comma delimited format used in spreadsheet applications
http://www.bom.gov.au/fwo/IDS60801/IDS60801.95659.axf

JavaScript Object Notation format (JSON) in row-major order
http://www.bom.gov.au/fwo/IDS60801/IDS60801.95659.json